sensor_id;sensor_type;location;lat;lon;timestamp;P1;durP1;ratioP1;P2;durP2;ratioP2
64716;SDS011;51146;50.274;19.000;2022-08-01T00:00:03;10.27;;;8.02;;
64716;SDS011;51146;50.274;19.000;2022-08-01T00:02:35;10.95;;;7.25;;
64716;SDS011;51146;50.274;19.000;2022-08-01T00:05:06;8.82;;;7.93;;
64716;SDS011;51146;50.274;19.000;2022-08-01T00:07:34;10.15;;;7.88;;
64716;SDS011;51146;50.274;19.000;2022-08-01T00:10:05;10.65;;;6.85;;
64716;SDS011;51146;50.274;19.000;2022-08-01T00:12:33;10.48;;;7.40;;
64716;SDS011;51146;50.274;19.000;2022-08-01T00:15:00;9.07;;;8.15;;
64716;SDS011;51146;50.274;19.000;2022-08-01T00:17:27;9.65;;;7.45;;
64716;SDS011;51146;50.274;19.000;2022-08-01T00:19:54;10.85;;;7.22;;
64716;SDS011;51146;50.274;19.000;2022-08-01T00:22:20;9.73;;;7.13;;
64716;SDS011;51146;50.274;19.000;2022-08-01T00:24:47;9.63;;;7.28;;
64716;SDS011;51146;50.274;19.000;2022-08-01T00:27:14;9.20;;;8.07;;
64716;SDS011;51146;50.274;19.000;2022-08-01T00:29:41;9.65;;;7.97;;
64716;SDS011;51146;50.274;19.000;2022-08-01T00:32:29;11.88;;;7.95;;
64716;SDS011;51146;50.274;19.000;2022-08-01T00:34:57;12.25;;;7.50;;
64716;SDS011;51146;50.274;19.000;2022-08-01T00:37:24;9.40;;;7.80;;
64716;SDS011;51146;50.274;19.000;2022-08-01T00:39:50;8.57;;;7.72;;
64716;SDS011;51146;50.274;19.000;2022-08-01T00:42:17;9.60;;;6.25;;
64716;SDS011;51146;50.274;19.000;2022-08-01T00:44:44;8.10;;;7.32;;
64716;SDS011;51146;50.274;19.000;2022-08-01T00:47:10;7.30;;;6.60;;
64716;SDS011;51146;50.274;19.000;2022-08-01T00:49:37;8.90;;;8.00;;
64716;SDS011;51146;50.274;19.000;2022-08-01T00:52:04;8.25;;;6.63;;
64716;SDS011;51146;50.274;19.000;2022-08-01T00:54:32;10.35;;;7.50;;
64716;SDS011;51146;50.274;19.000;2022-08-01T00:56:59;9.80;;;7.47;;
64716;SDS011;51146;50.274;19.000;2022-08-01T00:59:26;10.40;;;7.63;;
64716;SDS011;51146;50.274;19.000;2022-08-01T01:01:54;8.95;;;7.22;;
64716;SDS011;51146;50.274;19.000;2022-08-01T01:04:21;8.23;;;7.43;;
64716;SDS011;51146;50.274;19.000;2022-08-01T01:10:03;9.05;;;7.15;;
64716;SDS011;51146;50.274;19.000;2022-08-01T01:13:06;8.15;;;7.35;;
64716;SDS011;51146;50.274;19.000;2022-08-01T01:18:17;9.93;;;7.25;;
64716;SDS011;51146;50.274;19.000;2022-08-01T01:29:51;14.10;;;8.68;;
64716;SDS011;51146;50.274;19.000;2022-08-01T01:32:35;8.18;;;7.30;;
64716;SDS011;51146;50.274;19.000;2022-08-01T01:35:11;9.32;;;7.25;;
64716;SDS011;51146;50.274;19.000;2022-08-01T01:37:42;11.40;;;8.93;;
64716;SDS011;51146;50.274;19.000;2022-08-01T01:40:12;9.52;;;8.52;;
64716;SDS011;51146;50.274;19.000;2022-08-01T01:42:40;9.88;;;8.20;;
64716;SDS011;51146;50.274;19.000;2022-08-01T01:45:08;12.13;;;8.32;;
64716;SDS011;51146;50.274;19.000;2022-08-01T01:47:36;10.70;;;8.40;;
64716;SDS011;51146;50.274;19.000;2022-08-01T01:50:07;9.65;;;8.65;;
64716;SDS011;51146;50.274;19.000;2022-08-01T01:52:35;10.53;;;9.13;;
64716;SDS011;51146;50.274;19.000;2022-08-01T01:55:05;12.15;;;8.93;;
64716;SDS011;51146;50.274;19.000;2022-08-01T02:00:11;10.45;;;7.85;;
64716;SDS011;51146;50.274;19.000;2022-08-01T02:02:38;9.40;;;8.07;;
64716;SDS011;51146;50.274;19.000;2022-08-01T02:05:07;11.75;;;7.90;;
64716;SDS011;51146;50.274;19.000;2022-08-01T02:10:05;16.92;;;7.90;;
64716;SDS011;51146;50.274;19.000;2022-08-01T02:12:35;8.63;;;7.72;;
64716;SDS011;51146;50.274;19.000;2022-08-01T02:15:04;10.52;;;7.80;;
64716;SDS011;51146;50.274;19.000;2022-08-01T02:17:33;10.05;;;8.70;;
64716;SDS011;51146;50.274;19.000;2022-08-01T02:20:06;10.63;;;9.00;;
64716;SDS011;51146;50.274;19.000;2022-08-01T02:22:37;10.25;;;8.52;;
64716;SDS011;51146;50.274;19.000;2022-08-01T02:25:22;14.00;;;8.45;;
64716;SDS011;51146;50.274;19.000;2022-08-01T02:27:54;11.27;;;8.20;;
64716;SDS011;51146;50.274;19.000;2022-08-01T02:30:29;9.68;;;8.63;;
64716;SDS011;51146;50.274;19.000;2022-08-01T02:33:03;9.73;;;8.73;;
64716;SDS011;51146;50.274;19.000;2022-08-01T02:35:41;11.55;;;8.27;;
64716;SDS011;51146;50.274;19.000;2022-08-01T02:38:31;9.40;;;7.75;;
64716;SDS011;51146;50.274;19.000;2022-08-01T02:41:01;11.93;;;8.57;;
64716;SDS011;51146;50.274;19.000;2022-08-01T02:43:32;13.18;;;8.63;;
64716;SDS011;51146;50.274;19.000;2022-08-01T02:46:03;9.63;;;8.50;;
64716;SDS011;51146;50.274;19.000;2022-08-01T02:48:33;11.40;;;9.07;;
64716;SDS011;51146;50.274;19.000;2022-08-01T02:51:01;10.05;;;8.32;;
64716;SDS011;51146;50.274;19.000;2022-08-01T02:53:31;11.13;;;8.88;;
64716;SDS011;51146;50.274;19.000;2022-08-01T02:56:09;14.90;;;9.05;;
64716;SDS011;51146;50.274;19.000;2022-08-01T02:58:37;10.38;;;8.05;;
64716;SDS011;51146;50.274;19.000;2022-08-01T03:01:07;9.68;;;8.73;;
64716;SDS011;51146;50.274;19.000;2022-08-01T03:03:37;11.38;;;8.38;;
64716;SDS011;51146;50.274;19.000;2022-08-01T03:06:04;9.93;;;8.90;;
64716;SDS011;51146;50.274;19.000;2022-08-01T03:08:32;11.38;;;10.18;;
64716;SDS011;51146;50.274;19.000;2022-08-01T03:11:01;14.93;;;9.48;;
64716;SDS011;51146;50.274;19.000;2022-08-01T03:13:30;10.48;;;8.88;;
64716;SDS011;51146;50.274;19.000;2022-08-01T03:15:59;9.98;;;7.97;;
64716;SDS011;51146;50.274;19.000;2022-08-01T03:18:26;12.55;;;8.48;;
64716;SDS011;51146;50.274;19.000;2022-08-01T03:20:55;10.75;;;8.02;;
64716;SDS011;51146;50.274;19.000;2022-08-01T03:23:23;13.35;;;8.27;;
64716;SDS011;51146;50.274;19.000;2022-08-01T03:28:30;10.32;;;8.20;;
64716;SDS011;51146;50.274;19.000;2022-08-01T03:30:58;11.75;;;8.70;;
64716;SDS011;51146;50.274;19.000;2022-08-01T03:33:26;10.20;;;8.57;;
64716;SDS011;51146;50.274;19.000;2022-08-01T03:35:54;10.65;;;8.15;;
64716;SDS011;51146;50.274;19.000;2022-08-01T03:38:23;10.38;;;8.15;;
64716;SDS011;51146;50.274;19.000;2022-08-01T03:40:57;11.40;;;8.73;;
64716;SDS011;51146;50.274;19.000;2022-08-01T03:43:38;11.35;;;8.70;;
64716;SDS011;51146;50.274;19.000;2022-08-01T03:46:11;15.38;;;10.85;;
64716;SDS011;51146;50.274;19.000;2022-08-01T03:48:45;12.90;;;8.27;;
64716;SDS011;51146;50.274;19.000;2022-08-01T03:51:14;10.88;;;8.18;;
64716;SDS011;51146;50.274;19.000;2022-08-01T03:53:43;13.02;;;8.75;;
64716;SDS011;51146;50.274;19.000;2022-08-01T03:56:11;13.68;;;9.48;;
64716;SDS011;51146;50.274;19.000;2022-08-01T03:58:40;11.07;;;8.93;;
64716;SDS011;51146;50.274;19.000;2022-08-01T04:01:08;12.85;;;8.60;;
64716;SDS011;51146;50.274;19.000;2022-08-01T04:03:41;10.00;;;8.18;;
64716;SDS011;51146;50.274;19.000;2022-08-01T04:06:09;12.65;;;8.60;;
64716;SDS011;51146;50.274;19.000;2022-08-01T04:08:37;11.13;;;9.00;;
64716;SDS011;51146;50.274;19.000;2022-08-01T04:11:04;12.35;;;8.73;;
64716;SDS011;51146;50.274;19.000;2022-08-01T04:13:32;9.50;;;8.38;;
64716;SDS011;51146;50.274;19.000;2022-08-01T04:16:02;10.10;;;8.23;;
64716;SDS011;51146;50.274;19.000;2022-08-01T04:18:29;11.65;;;8.10;;
64716;SDS011;51146;50.274;19.000;2022-08-01T04:20:56;11.02;;;8.00;;
64716;SDS011;51146;50.274;19.000;2022-08-01T04:23:24;9.88;;;8.07;;
64716;SDS011;51146;50.274;19.000;2022-08-01T04:25:53;15.82;;;8.77;;
64716;SDS011;51146;50.274;19.000;2022-08-01T04:28:22;13.07;;;8.90;;
64716;SDS011;51146;50.274;19.000;2022-08-01T04:30:50;10.88;;;8.20;;
64716;SDS011;51146;50.274;19.000;2022-08-01T04:33:26;14.93;;;9.27;;
64716;SDS011;51146;50.274;19.000;2022-08-01T04:38:29;11.25;;;8.18;;
64716;SDS011;51146;50.274;19.000;2022-08-01T04:40:58;14.70;;;9.52;;
64716;SDS011;51146;50.274;19.000;2022-08-01T04:43:34;12.68;;;9.25;;
64716;SDS011;51146;50.274;19.000;2022-08-01T04:46:02;13.10;;;9.95;;
64716;SDS011;51146;50.274;19.000;2022-08-01T04:48:31;17.45;;;10.25;;
64716;SDS011;51146;50.274;19.000;2022-08-01T04:51:00;13.25;;;10.00;;
64716;SDS011;51146;50.274;19.000;2022-08-01T04:53:27;13.93;;;9.85;;
64716;SDS011;51146;50.274;19.000;2022-08-01T04:55:54;12.30;;;10.00;;
64716;SDS011;51146;50.274;19.000;2022-08-01T04:58:21;15.38;;;10.98;;
64716;SDS011;51146;50.274;19.000;2022-08-01T05:00:48;18.58;;;11.70;;
64716;SDS011;51146;50.274;19.000;2022-08-01T05:03:16;16.13;;;10.73;;
64716;SDS011;51146;50.274;19.000;2022-08-01T05:05:42;18.05;;;12.38;;
64716;SDS011;51146;50.274;19.000;2022-08-01T05:08:10;17.85;;;12.90;;
64716;SDS011;51146;50.274;19.000;2022-08-01T05:10:37;19.75;;;12.32;;
64716;SDS011;51146;50.274;19.000;2022-08-01T05:13:04;17.65;;;12.95;;
64716;SDS011;51146;50.274;19.000;2022-08-01T05:15:33;19.58;;;12.13;;
64716;SDS011;51146;50.274;19.000;2022-08-01T05:18:01;23.30;;;12.77;;
64716;SDS011;51146;50.274;19.000;2022-08-01T05:20:27;16.52;;;11.85;;
64716;SDS011;51146;50.274;19.000;2022-08-01T05:22:54;19.00;;;12.65;;
64716;SDS011;51146;50.274;19.000;2022-08-01T05:25:22;17.77;;;13.90;;
64716;SDS011;51146;50.274;19.000;2022-08-01T05:28:09;22.40;;;13.93;;
64716;SDS011;51146;50.274;19.000;2022-08-01T05:30:36;19.65;;;14.10;;
64716;SDS011;51146;50.274;19.000;2022-08-01T05:33:04;21.08;;;12.77;;
64716;SDS011;51146;50.274;19.000;2022-08-01T05:35:31;13.95;;;12.50;;
64716;SDS011;51146;50.274;19.000;2022-08-01T05:38:14;18.17;;;14.40;;
64716;SDS011;51146;50.274;19.000;2022-08-01T05:40:41;16.65;;;13.55;;
64716;SDS011;51146;50.274;19.000;2022-08-01T05:43:08;21.55;;;13.38;;
64716;SDS011;51146;50.274;19.000;2022-08-01T05:45:35;18.50;;;12.90;;
64716;SDS011;51146;50.274;19.000;2022-08-01T05:48:01;16.13;;;12.52;;
64716;SDS011;51146;50.274;19.000;2022-08-01T05:50:28;16.70;;;13.05;;
64716;SDS011;51146;50.274;19.000;2022-08-01T05:52:55;15.82;;;11.82;;
64716;SDS011;51146;50.274;19.000;2022-08-01T05:55:21;18.60;;;11.18;;
64716;SDS011;51146;50.274;19.000;2022-08-01T05:57:48;14.18;;;9.73;;
64716;SDS011;51146;50.274;19.000;2022-08-01T06:00:16;11.52;;;9.32;;
64716;SDS011;51146;50.274;19.000;2022-08-01T06:02:43;11.60;;;9.15;;
64716;SDS011;51146;50.274;19.000;2022-08-01T06:05:10;12.82;;;9.65;;
64716;SDS011;51146;50.274;19.000;2022-08-01T06:07:38;14.77;;;9.63;;
64716;SDS011;51146;50.274;19.000;2022-08-01T06:10:07;14.68;;;9.05;;
64716;SDS011;51146;50.274;19.000;2022-08-01T06:12:35;11.68;;;8.98;;
64716;SDS011;51146;50.274;19.000;2022-08-01T06:15:03;10.27;;;8.15;;
64716;SDS011;51146;50.274;19.000;2022-08-01T06:17:32;14.18;;;7.78;;
64716;SDS011;51146;50.274;19.000;2022-08-01T06:19:59;10.80;;;8.27;;
64716;SDS011;51146;50.274;19.000;2022-08-01T06:22:26;12.07;;;7.85;;
64716;SDS011;51146;50.274;19.000;2022-08-01T06:24:53;9.80;;;7.32;;
64716;SDS011;51146;50.274;19.000;2022-08-01T06:27:20;8.93;;;7.15;;
64716;SDS011;51146;50.274;19.000;2022-08-01T06:29:48;10.63;;;7.25;;
64716;SDS011;51146;50.274;19.000;2022-08-01T06:32:19;8.73;;;7.05;;
64716;SDS011;51146;50.274;19.000;2022-08-01T06:34:52;11.45;;;6.68;;
64716;SDS011;51146;50.274;19.000;2022-08-01T06:37:21;12.05;;;6.60;;
64716;SDS011;51146;50.274;19.000;2022-08-01T06:39:49;8.13;;;7.22;;
64716;SDS011;51146;50.274;19.000;2022-08-01T06:42:16;8.98;;;7.15;;
64716;SDS011;51146;50.274;19.000;2022-08-01T06:44:44;10.23;;;8.43;;
64716;SDS011;51146;50.274;19.000;2022-08-01T06:47:11;8.65;;;7.10;;
64716;SDS011;51146;50.274;19.000;2022-08-01T06:49:38;8.65;;;7.18;;
64716;SDS011;51146;50.274;19.000;2022-08-01T06:52:05;8.73;;;7.80;;
64716;SDS011;51146;50.274;19.000;2022-08-01T06:54:32;10.40;;;8.07;;
64716;SDS011;51146;50.274;19.000;2022-08-01T06:56:59;10.85;;;8.13;;
64716;SDS011;51146;50.274;19.000;2022-08-01T06:59:25;12.82;;;8.18;;
64716;SDS011;51146;50.274;19.000;2022-08-01T07:01:52;13.40;;;7.90;;
64716;SDS011;51146;50.274;19.000;2022-08-01T07:04:19;12.75;;;8.80;;
64716;SDS011;51146;50.274;19.000;2022-08-01T07:06:46;11.40;;;8.77;;
64716;SDS011;51146;50.274;19.000;2022-08-01T07:09:12;11.98;;;8.52;;
64716;SDS011;51146;50.274;19.000;2022-08-01T07:11:40;10.77;;;8.30;;
64716;SDS011;51146;50.274;19.000;2022-08-01T07:14:07;10.98;;;8.38;;
64716;SDS011;51146;50.274;19.000;2022-08-01T07:16:34;12.13;;;8.73;;
64716;SDS011;51146;50.274;19.000;2022-08-01T07:19:01;12.82;;;8.00;;
64716;SDS011;51146;50.274;19.000;2022-08-01T07:21:28;13.70;;;9.63;;
64716;SDS011;51146;50.274;19.000;2022-08-01T07:24:10;11.43;;;8.40;;
64716;SDS011;51146;50.274;19.000;2022-08-01T07:26:41;11.98;;;7.90;;
64716;SDS011;51146;50.274;19.000;2022-08-01T07:29:22;12.13;;;8.25;;
64716;SDS011;51146;50.274;19.000;2022-08-01T07:31:52;10.70;;;7.32;;
64716;SDS011;51146;50.274;19.000;2022-08-01T07:34:21;16.98;;;6.20;;
64716;SDS011;51146;50.274;19.000;2022-08-01T07:36:49;17.17;;;7.45;;
64716;SDS011;51146;50.274;19.000;2022-08-01T07:39:16;10.55;;;6.68;;
64716;SDS011;51146;50.274;19.000;2022-08-01T07:41:44;13.55;;;8.05;;
64716;SDS011;51146;50.274;19.000;2022-08-01T07:44:30;16.02;;;6.95;;
64716;SDS011;51146;50.274;19.000;2022-08-01T07:46:58;9.77;;;6.70;;
64716;SDS011;51146;50.274;19.000;2022-08-01T07:49:25;11.15;;;6.78;;
64716;SDS011;51146;50.274;19.000;2022-08-01T07:51:52;8.68;;;6.05;;
64716;SDS011;51146;50.274;19.000;2022-08-01T07:54:38;6.25;;;5.28;;
64716;SDS011;51146;50.274;19.000;2022-08-01T07:57:05;8.43;;;4.45;;
64716;SDS011;51146;50.274;19.000;2022-08-01T07:59:32;8.40;;;4.53;;
64716;SDS011;51146;50.274;19.000;2022-08-01T08:01:59;5.28;;;3.83;;
64716;SDS011;51146;50.274;19.000;2022-08-01T08:04:26;8.93;;;4.50;;
64716;SDS011;51146;50.274;19.000;2022-08-01T08:06:54;5.22;;;3.90;;
64716;SDS011;51146;50.274;19.000;2022-08-01T08:09:21;7.07;;;3.58;;
64716;SDS011;51146;50.274;19.000;2022-08-01T08:11:49;5.55;;;3.90;;
64716;SDS011;51146;50.274;19.000;2022-08-01T08:14:16;5.30;;;3.40;;
64716;SDS011;51146;50.274;19.000;2022-08-01T08:16:43;4.75;;;3.50;;
64716;SDS011;51146;50.274;19.000;2022-08-01T08:19:10;5.75;;;3.10;;
64716;SDS011;51146;50.274;19.000;2022-08-01T08:21:38;7.32;;;3.78;;
64716;SDS011;51146;50.274;19.000;2022-08-01T08:24:05;5.25;;;3.55;;
64716;SDS011;51146;50.274;19.000;2022-08-01T08:27:01;4.97;;;3.33;;
64716;SDS011;51146;50.274;19.000;2022-08-01T08:29:28;5.45;;;4.00;;
64716;SDS011;51146;50.274;19.000;2022-08-01T08:31:58;5.15;;;3.70;;
64716;SDS011;51146;50.274;19.000;2022-08-01T08:34:26;3.45;;;3.15;;
64716;SDS011;51146;50.274;19.000;2022-08-01T08:36:54;6.05;;;3.70;;
64716;SDS011;51146;50.274;19.000;2022-08-01T08:39:24;5.13;;;3.55;;
64716;SDS011;51146;50.274;19.000;2022-08-01T08:41:52;4.28;;;3.53;;
64716;SDS011;51146;50.274;19.000;2022-08-01T08:44:18;4.18;;;3.78;;
64716;SDS011;51146;50.274;19.000;2022-08-01T08:46:49;5.75;;;3.78;;
64716;SDS011;51146;50.274;19.000;2022-08-01T08:49:22;8.38;;;3.78;;
64716;SDS011;51146;50.274;19.000;2022-08-01T08:51:51;8.30;;;3.83;;
64716;SDS011;51146;50.274;19.000;2022-08-01T08:54:21;5.82;;;3.95;;
64716;SDS011;51146;50.274;19.000;2022-08-01T08:56:57;6.28;;;3.40;;
64716;SDS011;51146;50.274;19.000;2022-08-01T08:59:26;4.97;;;3.78;;
64716;SDS011;51146;50.274;19.000;2022-08-01T09:01:54;4.18;;;3.80;;
64716;SDS011;51146;50.274;19.000;2022-08-01T09:04:23;5.13;;;4.10;;
64716;SDS011;51146;50.274;19.000;2022-08-01T09:06:52;7.80;;;4.25;;
64716;SDS011;51146;50.274;19.000;2022-08-01T09:09:19;9.30;;;4.55;;
64716;SDS011;51146;50.274;19.000;2022-08-01T09:11:46;6.65;;;4.85;;
64716;SDS011;51146;50.274;19.000;2022-08-01T09:14:23;10.15;;;6.15;;
64716;SDS011;51146;50.274;19.000;2022-08-01T09:17:07;13.68;;;5.50;;
64716;SDS011;51146;50.274;19.000;2022-08-01T09:19:41;8.85;;;5.20;;
64716;SDS011;51146;50.274;19.000;2022-08-01T09:22:14;6.85;;;4.82;;
64716;SDS011;51146;50.274;19.000;2022-08-01T09:27:33;6.82;;;4.55;;
64716;SDS011;51146;50.274;19.000;2022-08-01T09:30:08;7.75;;;4.63;;
64716;SDS011;51146;50.274;19.000;2022-08-01T09:32:57;9.40;;;4.60;;
64716;SDS011;51146;50.274;19.000;2022-08-01T09:35:36;12.63;;;4.80;;
64716;SDS011;51146;50.274;19.000;2022-08-01T09:38:18;7.55;;;4.10;;
64716;SDS011;51146;50.274;19.000;2022-08-01T09:43:25;4.85;;;3.60;;
64716;SDS011;51146;50.274;19.000;2022-08-01T09:45:57;6.47;;;4.03;;
64716;SDS011;51146;50.274;19.000;2022-08-01T09:48:26;6.43;;;4.38;;
64716;SDS011;51146;50.274;19.000;2022-08-01T09:50:56;6.53;;;4.43;;
64716;SDS011;51146;50.274;19.000;2022-08-01T09:53:43;7.35;;;4.30;;
64716;SDS011;51146;50.274;19.000;2022-08-01T09:56:18;5.38;;;4.88;;
64716;SDS011;51146;50.274;19.000;2022-08-01T09:58:50;6.67;;;4.47;;
64716;SDS011;51146;50.274;19.000;2022-08-01T10:01:24;7.88;;;5.07;;
64716;SDS011;51146;50.274;19.000;2022-08-01T10:04:07;8.02;;;4.72;;
64716;SDS011;51146;50.274;19.000;2022-08-01T10:06:37;7.93;;;4.85;;
64716;SDS011;51146;50.274;19.000;2022-08-01T10:09:09;5.63;;;5.10;;
64716;SDS011;51146;50.274;19.000;2022-08-01T10:11:39;9.75;;;5.38;;
64716;SDS011;51146;50.274;19.000;2022-08-01T10:14:07;7.50;;;5.47;;
64716;SDS011;51146;50.274;19.000;2022-08-01T10:16:35;6.20;;;5.28;;
64716;SDS011;51146;50.274;19.000;2022-08-01T10:19:05;5.95;;;4.75;;
64716;SDS011;51146;50.274;19.000;2022-08-01T10:21:41;5.53;;;5.00;;
64716;SDS011;51146;50.274;19.000;2022-08-01T10:24:24;7.20;;;5.20;;
64716;SDS011;51146;50.274;19.000;2022-08-01T10:26:54;9.10;;;4.93;;
64716;SDS011;51146;50.274;19.000;2022-08-01T10:29:24;6.93;;;4.82;;
64716;SDS011;51146;50.274;19.000;2022-08-01T10:32:13;7.55;;;5.47;;
64716;SDS011;51146;50.274;19.000;2022-08-01T10:34:41;7.28;;;5.47;;
64716;SDS011;51146;50.274;19.000;2022-08-01T10:37:10;9.68;;;5.35;;
64716;SDS011;51146;50.274;19.000;2022-08-01T10:39:39;5.80;;;5.20;;
64716;SDS011;51146;50.274;19.000;2022-08-01T10:42:06;7.57;;;5.15;;
64716;SDS011;51146;50.274;19.000;2022-08-01T10:44:41;7.90;;;5.00;;
64716;SDS011;51146;50.274;19.000;2022-08-01T10:47:15;6.03;;;5.43;;
64716;SDS011;51146;50.274;19.000;2022-08-01T10:50:11;6.63;;;5.10;;
64716;SDS011;51146;50.274;19.000;2022-08-01T10:58:33;7.95;;;4.88;;
64716;SDS011;51146;50.274;19.000;2022-08-01T11:09:22;7.45;;;5.45;;
64716;SDS011;51146;50.274;19.000;2022-08-01T11:12:09;11.00;;;6.15;;
64716;SDS011;51146;50.274;19.000;2022-08-01T11:20:21;11.65;;;5.75;;
64716;SDS011;51146;50.274;19.000;2022-08-01T11:28:25;9.27;;;6.38;;
64716;SDS011;51146;50.274;19.000;2022-08-01T11:41:11;9.83;;;6.47;;
64716;SDS011;51146;50.274;19.000;2022-08-01T11:52:05;8.40;;;7.20;;
64716;SDS011;51146;50.274;19.000;2022-08-01T11:54:39;9.13;;;7.88;;
64716;SDS011;51146;50.274;19.000;2022-08-01T11:57:09;8.45;;;7.03;;
64716;SDS011;51146;50.274;19.000;2022-08-01T11:59:47;9.95;;;6.57;;
64716;SDS011;51146;50.274;19.000;2022-08-01T12:02:30;8.23;;;6.75;;
64716;SDS011;51146;50.274;19.000;2022-08-01T12:05:02;8.32;;;6.80;;
64716;SDS011;51146;50.274;19.000;2022-08-01T12:07:33;7.82;;;6.97;;
64716;SDS011;51146;50.274;19.000;2022-08-01T12:10:04;8.30;;;6.15;;
64716;SDS011;51146;50.274;19.000;2022-08-01T12:12:48;8.23;;;6.10;;
64716;SDS011;51146;50.274;19.000;2022-08-01T12:15:18;15.23;;;6.57;;
64716;SDS011;51146;50.274;19.000;2022-08-01T12:17:47;8.55;;;5.68;;
64716;SDS011;51146;50.274;19.000;2022-08-01T12:20:25;7.47;;;4.90;;
64716;SDS011;51146;50.274;19.000;2022-08-01T12:23:03;5.28;;;4.55;;
64716;SDS011;51146;50.274;19.000;2022-08-01T12:25:32;6.40;;;4.32;;
64716;SDS011;51146;50.274;19.000;2022-08-01T12:28:00;5.22;;;4.18;;
64716;SDS011;51146;50.274;19.000;2022-08-01T12:32:57;5.30;;;4.07;;
64716;SDS011;51146;50.274;19.000;2022-08-01T12:35:24;5.40;;;3.90;;
64716;SDS011;51146;50.274;19.000;2022-08-01T12:37:56;9.25;;;4.18;;
64716;SDS011;51146;50.274;19.000;2022-08-01T12:40:42;6.20;;;4.55;;
64716;SDS011;51146;50.274;19.000;2022-08-01T12:43:19;5.60;;;4.10;;
64716;SDS011;51146;50.274;19.000;2022-08-01T12:45:54;4.97;;;4.47;;
64716;SDS011;51146;50.274;19.000;2022-08-01T12:48:26;5.68;;;4.40;;
64716;SDS011;51146;50.274;19.000;2022-08-01T12:50:54;4.97;;;3.72;;
64716;SDS011;51146;50.274;19.000;2022-08-01T12:53:24;5.78;;;3.70;;
64716;SDS011;51146;50.274;19.000;2022-08-01T12:56:07;4.57;;;3.63;;
64716;SDS011;51146;50.274;19.000;2022-08-01T12:58:34;5.95;;;3.90;;
64716;SDS011;51146;50.274;19.000;2022-08-01T13:01:03;5.97;;;5.05;;
64716;SDS011;51146;50.274;19.000;2022-08-01T13:03:31;10.25;;;5.28;;
64716;SDS011;51146;50.274;19.000;2022-08-01T13:05:59;4.75;;;4.10;;
64716;SDS011;51146;50.274;19.000;2022-08-01T13:08:33;4.20;;;3.80;;
64716;SDS011;51146;50.274;19.000;2022-08-01T13:11:01;4.75;;;3.90;;
64716;SDS011;51146;50.274;19.000;2022-08-01T13:13:40;4.85;;;4.38;;
64716;SDS011;51146;50.274;19.000;2022-08-01T13:16:19;6.05;;;4.65;;
64716;SDS011;51146;50.274;19.000;2022-08-01T13:19:08;4.65;;;4.20;;
64716;SDS011;51146;50.274;19.000;2022-08-01T13:21:35;4.10;;;3.72;;
64716;SDS011;51146;50.274;19.000;2022-08-01T13:24:28;4.60;;;4.10;;
64716;SDS011;51146;50.274;19.000;2022-08-01T13:26:57;6.60;;;3.70;;
64716;SDS011;51146;50.274;19.000;2022-08-01T13:32:15;4.30;;;3.38;;
64716;SDS011;51146;50.274;19.000;2022-08-01T13:35:04;5.75;;;3.50;;
64716;SDS011;51146;50.274;19.000;2022-08-01T13:37:36;6.07;;;3.97;;
64716;SDS011;51146;50.274;19.000;2022-08-01T13:40:05;8.45;;;3.78;;
64716;SDS011;51146;50.274;19.000;2022-08-01T13:42:33;7.07;;;4.20;;
64716;SDS011;51146;50.274;19.000;2022-08-01T13:45:01;15.32;;;4.90;;
64716;SDS011;51146;50.274;19.000;2022-08-01T13:47:40;8.10;;;4.18;;
64716;SDS011;51146;50.274;19.000;2022-08-01T13:50:27;9.60;;;3.90;;
64716;SDS011;51146;50.274;19.000;2022-08-01T13:52:54;7.70;;;4.07;;
64716;SDS011;51146;50.274;19.000;2022-08-01T13:55:21;7.22;;;4.05;;
64716;SDS011;51146;50.274;19.000;2022-08-01T13:57:48;8.45;;;4.28;;
64716;SDS011;51146;50.274;19.000;2022-08-01T14:00:16;10.97;;;4.20;;
64716;SDS011;51146;50.274;19.000;2022-08-01T14:02:43;4.35;;;3.67;;
64716;SDS011;51146;50.274;19.000;2022-08-01T14:05:10;5.93;;;3.95;;
64716;SDS011;51146;50.274;19.000;2022-08-01T14:07:37;3.92;;;3.53;;
64716;SDS011;51146;50.274;19.000;2022-08-01T14:10:06;7.85;;;4.10;;
64716;SDS011;51146;50.274;19.000;2022-08-01T14:12:44;8.77;;;3.83;;
64716;SDS011;51146;50.274;19.000;2022-08-01T14:15:11;6.13;;;4.30;;
64716;SDS011;51146;50.274;19.000;2022-08-01T14:17:38;8.27;;;4.05;;
64716;SDS011;51146;50.274;19.000;2022-08-01T14:20:13;7.50;;;3.95;;
64716;SDS011;51146;50.274;19.000;2022-08-01T14:22:40;7.30;;;4.00;;
64716;SDS011;51146;50.274;19.000;2022-08-01T14:25:07;7.95;;;3.85;;
64716;SDS011;51146;50.274;19.000;2022-08-01T14:27:34;5.47;;;3.95;;
64716;SDS011;51146;50.274;19.000;2022-08-01T14:30:03;20.15;;;4.75;;
64716;SDS011;51146;50.274;19.000;2022-08-01T14:32:30;15.60;;;4.37;;
64716;SDS011;51146;50.274;19.000;2022-08-01T14:35:00;7.43;;;4.30;;
64716;SDS011;51146;50.274;19.000;2022-08-01T14:37:27;4.85;;;4.30;;
64716;SDS011;51146;50.274;19.000;2022-08-01T14:39:59;11.75;;;4.30;;
64716;SDS011;51146;50.274;19.000;2022-08-01T14:42:32;8.32;;;4.97;;
64716;SDS011;51146;50.274;19.000;2022-08-01T14:45:00;10.27;;;4.72;;
64716;SDS011;51146;50.274;19.000;2022-08-01T14:47:27;5.97;;;4.95;;
64716;SDS011;51146;50.274;19.000;2022-08-01T14:49:53;7.43;;;5.20;;
64716;SDS011;51146;50.274;19.000;2022-08-01T14:52:21;5.22;;;4.35;;
64716;SDS011;51146;50.274;19.000;2022-08-01T14:54:47;6.72;;;4.93;;
64716;SDS011;51146;50.274;19.000;2022-08-01T14:57:14;7.95;;;4.90;;
64716;SDS011;51146;50.274;19.000;2022-08-01T14:59:44;16.75;;;6.57;;
64716;SDS011;51146;50.274;19.000;2022-08-01T15:02:12;9.13;;;5.43;;
64716;SDS011;51146;50.274;19.000;2022-08-01T15:04:43;5.88;;;5.28;;
64716;SDS011;51146;50.274;19.000;2022-08-01T15:07:11;7.82;;;5.50;;
64716;SDS011;51146;50.274;19.000;2022-08-01T15:09:38;17.20;;;6.78;;
64716;SDS011;51146;50.274;19.000;2022-08-01T15:12:05;5.93;;;5.15;;
64716;SDS011;51146;50.274;19.000;2022-08-01T15:14:32;6.85;;;5.75;;
64716;SDS011;51146;50.274;19.000;2022-08-01T15:17:24;10.93;;;5.72;;
64716;SDS011;51146;50.274;19.000;2022-08-01T15:19:57;7.43;;;6.05;;
64716;SDS011;51146;50.274;19.000;2022-08-01T15:22:25;10.93;;;5.35;;
64716;SDS011;51146;50.274;19.000;2022-08-01T15:24:54;10.23;;;6.22;;
64716;SDS011;51146;50.274;19.000;2022-08-01T15:27:23;6.70;;;5.85;;
64716;SDS011;51146;50.274;19.000;2022-08-01T15:29:51;8.07;;;6.28;;
64716;SDS011;51146;50.274;19.000;2022-08-01T15:32:17;11.13;;;6.10;;
64716;SDS011;51146;50.274;19.000;2022-08-01T15:34:44;8.98;;;5.88;;
64716;SDS011;51146;50.274;19.000;2022-08-01T15:37:12;12.98;;;5.95;;
64716;SDS011;51146;50.274;19.000;2022-08-01T15:39:38;7.22;;;6.22;;
64716;SDS011;51146;50.274;19.000;2022-08-01T15:42:06;8.40;;;6.00;;
64716;SDS011;51146;50.274;19.000;2022-08-01T15:44:36;9.73;;;5.60;;
64716;SDS011;51146;50.274;19.000;2022-08-01T15:47:03;19.70;;;13.30;;
64716;SDS011;51146;50.274;19.000;2022-08-01T15:49:31;24.73;;;17.73;;
64716;SDS011;51146;50.274;19.000;2022-08-01T15:51:58;26.90;;;19.02;;
64716;SDS011;51146;50.274;19.000;2022-08-01T15:54:25;11.90;;;6.65;;
64716;SDS011;51146;50.274;19.000;2022-08-01T15:56:53;6.68;;;6.05;;
64716;SDS011;51146;50.274;19.000;2022-08-01T15:59:20;8.07;;;5.45;;
64716;SDS011;51146;50.274;19.000;2022-08-01T16:01:48;8.18;;;6.00;;
64716;SDS011;51146;50.274;19.000;2022-08-01T16:04:16;8.23;;;5.75;;
64716;SDS011;51146;50.274;19.000;2022-08-01T16:06:44;7.68;;;5.60;;